Doris Moran — WRU2125 — position and weather

sailwx.info

Track history (hours):
 
Tides and Currents Weather Stations Pressure Air Temp Water Temp Dewpoint Dewpoint Depression Visibility Wind Speed Wind Dir Waves Ship Positions

Doris Moran

Owner: MORAN TOWING CORPORATION, New Canaan, CT. More information available from US FCC via Universal Licensing System and Coast Guard Vessel Documentation Center.

Last reported at 2017-Oct-20 12:31 UTC. Time now 2017-Oct-20 12:44 UTC.
Position N 40°38' W 074°08'.

Length 36 m; draft 5.3 m.

Type: Tug. MMSI: 366939790.

Date/timePositionNaut miles runAvg speedWind from/ knotsBaromVisibWave heightAir tempDewpointWater temp
2017-Oct-20 12:31N 40°38' W 074°08'0 0.0
2017-Oct-20 12:00N 40°38' W 074°08'0 0.0
2017-Oct-20 11:30N 40°38' W 074°08'0 0.0
2017-Oct-20 11:00N 40°38' W 074°08'0 0.0
2017-Oct-20 10:31N 40°38' W 074°08'0 0.0
2017-Oct-20 10:00N 40°38' W 074°08'0 0.0
2017-Oct-20 09:30N 40°38' W 074°08'0 0.0
2017-Oct-20 09:00N 40°38' W 074°08'0 0.0
2017-Oct-20 08:30N 40°38' W 074°08'0 0.0
2017-Oct-20 08:01N 40°38' W 074°08'0 0.0
2017-Oct-20 07:30N 40°38' W 074°08'0 0.0
2017-Oct-20 07:00N 40°38' W 074°08'0 0.0
2017-Oct-20 06:30N 40°38' W 074°08'0 0.0
2017-Oct-20 06:00N 40°38' W 074°08'0 0.0
2017-Oct-20 05:30N 40°38' W 074°08'0 0.0
2017-Oct-20 05:00N 40°38' W 074°08'0 0.0
2017-Oct-20 04:30N 40°38' W 074°08'0 0.0
2017-Oct-20 03:59N 40°38' W 074°08'0 0.0
2017-Oct-20 03:29N 40°38' W 074°08'0 0.0
2017-Oct-20 02:59N 40°38' W 074°08'0 0.0
2017-Oct-20 02:29N 40°38' W 074°08'0 0.0
2017-Oct-20 01:59N 40°38' W 074°08'0 0.0
2017-Oct-20 01:29N 40°38' W 074°08'0 0.0
2017-Oct-20 00:59N 40°38' W 074°08'0 0.0
2017-Oct-20 00:29N 40°38' W 074°08'0 0.0
2017-Oct-19 23:59N 40°38' W 074°08'0 0.0
2017-Oct-19 23:29N 40°38' W 074°08'0 0.0
2017-Oct-19 22:59N 40°38' W 074°08'0 0.1
2017-Oct-19 22:29N 40°38' W 074°08'2 4.2
2017-Oct-19 22:00N 40°40' W 074°08'2 4.8
2017-Oct-19 21:30N 40°43' W 074°07'0 0.0
2017-Oct-19 21:00N 40°43' W 074°07'0 0.0
2017-Oct-19 20:30N 40°43' W 074°07'0 0.0
2017-Oct-19 20:00N 40°43' W 074°07'0 0.0
2017-Oct-19 19:30N 40°43' W 074°07'0 0.0
2017-Oct-19 19:00N 40°43' W 074°07'0 0.0
2017-Oct-19 18:30N 40°43' W 074°07'0 0.0
2017-Oct-19 18:00N 40°43' W 074°07'0 0.0
2017-Oct-19 17:30N 40°43' W 074°07'0 0.0
2017-Oct-19 17:00N 40°43' W 074°07'0 0.0
2017-Oct-19 16:30N 40°43' W 074°07'0 0.0
2017-Oct-19 16:00N 40°43' W 074°07'0 0.0
2017-Oct-19 15:30N 40°43' W 074°07'0 0.0
2017-Oct-19 15:00N 40°43' W 074°07'0 0.0
2017-Oct-19 14:27N 40°43' W 074°07'0 0.0
2017-Oct-19 13:54N 40°43' W 074°07'0 0.0
2017-Oct-19 13:27N 40°43' W 074°07'0 0.0
2017-Oct-19 13:00N 40°43' W 074°07'4 8.7
2017-Oct-19 12:30N 40°39' W 074°09'1 0.8
2017-Oct-19 11:49N 40°38' W 074°08'0 0.0
2017-Oct-19 11:28N 40°38' W 074°08'0 0.0
2017-Oct-19 10:58N 40°38' W 074°08'0 0.0
2017-Oct-19 10:28N 40°38' W 074°08'0 0.0
2017-Oct-19 09:58N 40°38' W 074°08'0 0.0
2017-Oct-19 09:25N 40°38' W 074°08'0 0.0
2017-Oct-19 08:52N 40°38' W 074°08'0 0.0
2017-Oct-19 08:28N 40°38' W 074°08'0 0.0
2017-Oct-19 07:58N 40°38' W 074°08'0 0.0
2017-Oct-19 07:28N 40°38' W 074°08'0 0.0
2017-Oct-19 06:58N 40°38' W 074°08'0 0.0
2017-Oct-19 06:28N 40°38' W 074°08'0 0.0
2017-Oct-19 05:58N 40°38' W 074°08'0 0.0
2017-Oct-19 05:22N 40°38' W 074°08'0 0.0
2017-Oct-19 04:58N 40°38' W 074°08'0 0.0
2017-Oct-19 04:28N 40°38' W 074°08'0 0.0
2017-Oct-19 03:58N 40°38' W 074°08'0 0.8
2017-Oct-19 03:30N 40°39' W 074°07'1 1.3
2017-Oct-19 02:59N 40°39' W 074°07'0 0.0
2017-Oct-19 02:29N 40°39' W 074°07'0 0.0
2017-Oct-19 01:59N 40°39' W 074°07'0 0.0
2017-Oct-19 01:29N 40°39' W 074°07'0 0.0
2017-Oct-19 00:59N 40°39' W 074°07'0 0.0
2017-Oct-19 00:17N 40°39' W 074°07'1 3.6
2017-Oct-19 00:00N 40°39' W 074°08'3 6.6
2017-Oct-18 23:30N 40°42' W 074°07'1 1.6
2017-Oct-18 22:58N 40°43' W 074°07'0 0.1
2017-Oct-18 22:28N 40°43' W 074°07'0 0.0
2017-Oct-18 22:00N 40°43' W 074°07'0 0.1
2017-Oct-18 21:30N 40°43' W 074°07'0 0.1
2017-Oct-18 21:00N 40°43' W 074°07'2 4.3
2017-Oct-18 20:30N 40°41' W 074°08'2 4.0
2017-Oct-18 20:00N 40°39' W 074°08'3 6.3
2017-Oct-18 19:30N 40°39' W 074°04'3 5.5
2017-Oct-18 19:00N 40°41' W 074°02'2 4.7
2017-Oct-18 18:30N 40°44' W 074°01'2 4.8
2017-Oct-18 18:00N 40°46' W 074°01'1 2.2
2017-Oct-18 17:30N 40°47' W 073°60'0 0.2
2017-Oct-18 17:00N 40°47' W 073°60'0 0.0
2017-Oct-18 16:30N 40°47' W 073°60'0 0.0
2017-Oct-18 16:00N 40°47' W 073°60'0 0.1
2017-Oct-18 15:30N 40°47' W 073°60'0 0.4
2017-Oct-18 15:00N 40°47' W 073°60'2 2.1
2017-Oct-18 14:00N 40°45' W 074°01'3 6.0
2017-Oct-18 13:30N 40°42' W 074°01'3 5.9
2017-Oct-18 13:00N 40°40' W 074°03'2 4.9
2017-Oct-18 12:30N 40°39' W 074°06'1 0.6
2017-Oct-18 10:51N 40°39' W 074°05'2 3.3
2017-Oct-18 10:17N 40°40' W 074°03'1 4.4
2017-Oct-18 10:00N 40°41' W 074°02'2 4.3
2017-Oct-18 09:30N 40°43' W 074°01'0 0.3
2017-Oct-18 09:00N 40°43' W 074°01'1 1.3
2017-Oct-18 08:30N 40°43' W 074°01'2 4.2
2017-Oct-18 08:00N 40°41' W 074°02'3 6.3
2017-Oct-18 07:30N 40°38' W 074°03'49 6.9
2017-Oct-18 00:25N 39°49' W 073°58'3 7.8
2017-Oct-18 00:00N 39°46' W 073°59'4 7.6
2017-Oct-17 23:30N 39°42' W 073°59'4 7.3
2017-Oct-17 22:59N 39°38' W 074°00'3 7.0
2017-Oct-17 22:30N 39°35' W 074°02'4 7.0
2017-Oct-17 21:59N 39°32' W 074°03'177 6.3
2017-Oct-16 18:03N 36°56' W 075°51'0 5.4
2017-Oct-16 18:00N 36°56' W 075°52'3 5.3
2017-Oct-16 17:29N 36°56' W 075°55'3 6.9
2017-Oct-16 17:00N 36°56' W 075°59'4 7.5
2017-Oct-16 16:30N 36°57' W 076°04'13 5.2
2017-Oct-16 13:55N 36°59' W 076°20'3 6.7
2017-Oct-16 13:25N 36°56' W 076°20'3 7.8
2017-Oct-16 13:00N 36°52' W 076°20'3 5.8
2017-Oct-16 12:30N 36°50' W 076°18'2 4.6
2017-Oct-16 12:00N 36°48' W 076°18'1 2.4
2017-Oct-16 11:30N 36°47' W 076°18'0 0.8
2017-Oct-16 11:00N 36°46' W 076°18'0 0.0
2017-Oct-16 10:30N 36°46' W 076°18'0 0.0
2017-Oct-16 10:00N 36°46' W 076°18'0 0.0
2017-Oct-16 09:30N 36°46' W 076°18'0 0.0
2017-Oct-16 09:00N 36°46' W 076°18'0 0.0
2017-Oct-16 08:30N 36°46' W 076°18'0 0.0
2017-Oct-16 08:00N 36°46' W 076°18'0 0.0
2017-Oct-16 07:30N 36°46' W 076°18'0 0.0
2017-Oct-16 07:00N 36°46' W 076°18'0 0.0
2017-Oct-16 06:30N 36°46' W 076°18'0 0.0
2017-Oct-16 06:00N 36°46' W 076°18'0 0.0
2017-Oct-16 05:30N 36°46' W 076°18'0 0.0
2017-Oct-16 05:00N 36°46' W 076°18'0 0.0
2017-Oct-16 04:30N 36°46' W 076°18'0 0.0
2017-Oct-16 04:00N 36°46' W 076°18'0 0.0
2017-Oct-16 03:31N 36°46' W 076°18'0 0.0
2017-Oct-16 03:00N 36°46' W 076°18'0 0.0
2017-Oct-16 02:30N 36°46' W 076°18'0 0.0
2017-Oct-16 02:00N 36°46' W 076°18'0 0.0
2017-Oct-16 01:30N 36°46' W 076°18'0 0.0
2017-Oct-16 01:00N 36°46' W 076°18'0 0.0
2017-Oct-16 00:30N 36°46' W 076°18'0 0.0
2017-Oct-16 00:00N 36°46' W 076°18'0 0.0
2017-Oct-15 23:30N 36°46' W 076°18'0 0.0
2017-Oct-15 23:00N 36°46' W 076°18'0 0.0
2017-Oct-15 22:30N 36°46' W 076°18'0 0.0
2017-Oct-15 22:00N 36°46' W 076°18'0 0.0
2017-Oct-15 21:30N 36°46' W 076°18'0 0.0
2017-Oct-15 21:00N 36°46' W 076°18'0 0.0
2017-Oct-15 20:30N 36°46' W 076°18'0 0.0
2017-Oct-15 20:00N 36°46' W 076°18'0 0.0
2017-Oct-15 19:30N 36°46' W 076°18'0 0.0
2017-Oct-15 15:47N 36°46' W 076°18'0 0.0
2017-Oct-15 15:30N 36°46' W 076°18'0 0.0
2017-Oct-15 15:00N 36°46' W 076°18'0 0.0
2017-Oct-15 14:00N 36°46' W 076°18'0 0.0
2017-Oct-15 13:30N 36°46' W 076°18'0 0.0
2017-Oct-15 06:39N 36°46' W 076°18'0 0.0
2017-Oct-15 06:30N 36°46' W 076°18'0 0.0
2017-Oct-15 06:00N 36°46' W 076°18'0 0.0
2017-Oct-15 05:30N 36°46' W 076°18'0 0.0
2017-Oct-15 05:00N 36°46' W 076°18'0 0.0
2017-Oct-15 04:30N 36°46' W 076°18'0 0.0
2017-Oct-15 04:00N 36°46' W 076°18'0 0.0
2017-Oct-15 03:30N 36°46' W 076°18'0 0.0
2017-Oct-15 03:00N 36°46' W 076°18'0 0.0
2017-Oct-15 02:30N 36°46' W 076°18'0 0.0
2017-Oct-15 02:00N 36°46' W 076°18'0 0.0
2017-Oct-15 01:30N 36°46' W 076°18'0 0.0
2017-Oct-15 01:00N 36°46' W 076°18'0 0.0
2017-Oct-15 00:30N 36°46' W 076°18'0 0.0
2017-Oct-15 00:00N 36°46' W 076°18'3 1.4
2017-Oct-14 21:34N 36°50' W 076°18'0 7.0
2017-Oct-14 21:30N 36°50' W 076°18'3 6.4
2017-Oct-14 21:00N 36°53' W 076°20'3 6.4
2017-Oct-14 20:30N 36°56' W 076°20'3 4.2
2017-Oct-14 19:43N 36°59' W 076°20'10 2.8
2017-Oct-14 15:58N 36°59' W 076°07'3 6.7
2017-Oct-14 15:30N 36°58' W 076°03'3 5.9
2017-Oct-14 14:59N 36°57' W 075°59'3 6.0
2017-Oct-14 14:30N 36°57' W 075°56'3 6.0
2017-Oct-14 14:00N 36°57' W 075°52'176 8.0
2017-Oct-13 16:02N 39°31' W 074°04'1 8.6
2017-Oct-13 15:58N 39°31' W 074°03'4 8.6
2017-Oct-13 15:30N 39°35' W 074°02'4 8.6
2017-Oct-13 15:00N 39°39' W 074°00'4 8.5
2017-Oct-13 14:29N 39°44' W 073°59'57 8.1
2017-Oct-13 07:25N 40°41' W 074°02'3 7.2
2017-Oct-13 07:00N 40°44' W 074°01'4 7.3
2017-Oct-13 06:30N 40°47' W 073°60'3 6.3
2017-Oct-13 06:00N 40°50' W 073°58'0 0.2
2017-Oct-13 05:28N 40°50' W 073°58'0 0.0
2017-Oct-13 04:58N 40°50' W 073°58'0 0.0
2017-Oct-13 04:28N 40°50' W 073°58'0 0.0
2017-Oct-13 03:49N 40°50' W 073°58'0 0.0
2017-Oct-13 03:25N 40°50' W 073°58'0 0.0
2017-Oct-13 02:55N 40°50' W 073°58'0 0.0
2017-Oct-13 02:28N 40°50' W 073°58'0 0.0
2017-Oct-13 01:46N 40°50' W 073°58'0 0.0
2017-Oct-13 01:25N 40°50' W 073°58'0 0.0
2017-Oct-13 00:58N 40°50' W 073°58'0 0.0
2017-Oct-13 00:28N 40°50' W 073°58'0 0.0
2017-Oct-12 23:58N 40°50' W 073°58'0 0.1
2017-Oct-12 23:22N 40°50' W 073°58'0 0.1
2017-Oct-12 22:58N 40°50' W 073°58'0 0.1
2017-Oct-12 22:28N 40°50' W 073°58'0 0.0
2017-Oct-12 21:55N 40°50' W 073°58'0 0.1
2017-Oct-12 21:28N 40°50' W 073°58'0 0.0
2017-Oct-12 20:58N 40°50' W 073°58'0 0.0
2017-Oct-12 20:28N 40°50' W 073°58'0 0.0
2017-Oct-12 19:58N 40°50' W 073°58'0 0.0
2017-Oct-12 19:28N 40°50' W 073°58'0 0.0
2017-Oct-12 18:58N 40°50' W 073°58'0 0.0
2017-Oct-12 18:22N 40°50' W 073°58'0 0.0
2017-Oct-12 17:22N 40°50' W 073°58'0 0.1
2017-Oct-12 16:52N 40°50' W 073°58'0 0.1
2017-Oct-12 16:28N 40°50' W 073°58'0 0.1
2017-Oct-12 15:31N 40°50' W 073°58'0 0.1
2017-Oct-12 15:22N 40°50' W 073°58'0 0.1
2017-Oct-12 15:00N 40°50' W 073°58'0 0.0
2017-Oct-12 14:30N 40°50' W 073°58'0 0.0
2017-Oct-12 14:00N 40°50' W 073°58'0 0.0
2017-Oct-12 13:28N 40°50' W 073°58'0 0.0
2017-Oct-12 12:59N 40°50' W 073°58'0 0.0
2017-Oct-12 12:29N 40°50' W 073°58'0 0.0
2017-Oct-12 12:00N 40°50' W 073°58'0 0.0
2017-Oct-12 11:30N 40°50' W 073°58'0 0.0
2017-Oct-12 11:00N 40°50' W 073°58'0 0.0
2017-Oct-12 10:30N 40°50' W 073°58'0 1.0
2017-Oct-12 10:00N 40°49' W 073°58'0 0.2
2017-Oct-12 09:30N 40°49' W 073°58'3 5.3
2017-Oct-12 09:00N 40°47' W 073°60'4 8.9
2017-Oct-12 08:30N 40°43' W 074°01'4 2.5
2017-Oct-12 06:45N 40°42' W 074°07'1 1.0
2017-Oct-12 06:13N 40°43' W 074°07'0 0.0
2017-Oct-12 05:29N 40°43' W 074°07'0 0.6
2017-Oct-12 05:01N 40°42' W 074°07'4 7.9
2017-Oct-12 04:31N 40°39' W 074°08'0 0.2
2017-Oct-12 04:00N 40°38' W 074°08'0 0.0
2017-Oct-12 03:30N 40°38' W 074°08'0 0.0
2017-Oct-12 03:00N 40°38' W 074°08'0 0.0
2017-Oct-12 02:31N 40°38' W 074°08'0 0.0
2017-Oct-12 02:00N 40°38' W 074°08'0 0.0
2017-Oct-12 01:30N 40°38' W 074°08'0 0.0
2017-Oct-12 01:00N 40°38' W 074°08'0 0.0
2017-Oct-12 00:30N 40°38' W 074°08'0 0.0
2017-Oct-12 00:00N 40°38' W 074°08'0 0.0
2017-Oct-11 23:30N 40°38' W 074°08'0 0.0
2017-Oct-11 22:59N 40°38' W 074°08'0 0.0
2017-Oct-11 22:30N 40°38' W 074°08'0 0.0
2017-Oct-11 22:00N 40°38' W 074°08'0 0.0
2017-Oct-11 21:29N 40°38' W 074°08'0 0.0
2017-Oct-11 20:47N 40°38' W 074°08'0 0.0
2017-Oct-11 20:31N 40°38' W 074°08'0 0.0
2017-Oct-11 20:00N 40°38' W 074°08'0 0.0
2017-Oct-11 19:30N 40°38' W 074°08'4 7.2
2017-Oct-11 19:01N 40°42' W 074°07'1 1.4
2017-Oct-11 18:30N 40°43' W 074°07'2 4.5
2017-Oct-11 18:01N 40°40' W 074°08'1 1.4
2017-Oct-11 17:31N 40°40' W 074°08'0 0.6
2017-Oct-11 17:01N 40°40' W 074°08'2 0.1
2017-Oct-11 00:00N 40°38' W 074°08'0 0.0
2017-Oct-10 23:30N 40°38' W 074°08'1 1.3
2017-Oct-10 23:00N 40°39' W 074°07'0 0.7
2017-Oct-10 22:30N 40°39' W 074°07'0 0.0
2017-Oct-10 22:01N 40°39' W 074°07'0 0.0
2017-Oct-10 21:30N 40°39' W 074°07'0 0.0
2017-Oct-10 21:00N 40°39' W 074°07'0 0.7
2017-Oct-10 20:31N 40°39' W 074°07'3 6.7
2017-Oct-10 20:00N 40°42' W 074°07'1 1.4
2017-Oct-10 19:30N 40°43' W 074°07'2 3.0
2017-Oct-10 19:00N 40°41' W 074°08'3 5.3
2017-Oct-10 18:30N 40°39' W 074°08'3 6.8
2017-Oct-10 18:01N 40°39' W 074°04'1 1.3
2017-Oct-10 17:30N 40°39' W 074°03'0 0.2
2017-Oct-10 17:01N 40°39' W 074°03'3 5.5
2017-Oct-10 16:30N 40°39' W 074°07'2 3.4
2017-Oct-10 16:00N 40°39' W 074°09'3 5.6
2017-Oct-10 15:30N 40°42' W 074°07'1 1.5
2017-Oct-10 15:01N 40°43' W 074°07'0 0.0
2017-Oct-10 14:00N 40°43' W 074°07'2 3.2
2017-Oct-10 13:30N 40°41' W 074°08'3 5.3
2017-Oct-10 13:00N 40°38' W 074°08'  
Track history (hours):
 
Tides and Currents Weather Stations Pressure Air Temp Water Temp Dewpoint Dewpoint Depression Visibility Wind Speed Wind Dir Waves Ship Positions

Doris Moran

Owner: MORAN TOWING CORPORATION, New Canaan, CT. More information available from US FCC via Universal Licensing System and Coast Guard Vessel Documentation Center.

Last reported at 2017-Oct-20 12:31 UTC. Time now 2017-Oct-20 12:44 UTC.
Position N 40°38' W 074°08'.

Length 36 m; draft 5.3 m.

Type: Tug. MMSI: 366939790.

Date/timePositionNaut miles runAvg speedWind from/ knotsBaromVisibWave heightAir tempDewpointWater temp
2017-Oct-20 12:31N 40°38' W 074°08'0 0.0
2017-Oct-20 12:00N 40°38' W 074°08'0 0.0
2017-Oct-20 11:30N 40°38' W 074°08'0 0.0
2017-Oct-20 11:00N 40°38' W 074°08'0 0.0
2017-Oct-20 10:31N 40°38' W 074°08'0 0.0
2017-Oct-20 10:00N 40°38' W 074°08'0 0.0
2017-Oct-20 09:30N 40°38' W 074°08'0 0.0
2017-Oct-20 09:00N 40°38' W 074°08'0 0.0
2017-Oct-20 08:30N 40°38' W 074°08'0 0.0
2017-Oct-20 08:01N 40°38' W 074°08'0 0.0
2017-Oct-20 07:30N 40°38' W 074°08'0 0.0
2017-Oct-20 07:00N 40°38' W 074°08'0 0.0
2017-Oct-20 06:30N 40°38' W 074°08'0 0.0
2017-Oct-20 06:00N 40°38' W 074°08'0 0.0
2017-Oct-20 05:30N 40°38' W 074°08'0 0.0
2017-Oct-20 05:00N 40°38' W 074°08'0 0.0
2017-Oct-20 04:30N 40°38' W 074°08'0 0.0
2017-Oct-20 03:59N 40°38' W 074°08'0 0.0
2017-Oct-20 03:29N 40°38' W 074°08'0 0.0
2017-Oct-20 02:59N 40°38' W 074°08'0 0.0
2017-Oct-20 02:29N 40°38' W 074°08'0 0.0
2017-Oct-20 01:59N 40°38' W 074°08'0 0.0
2017-Oct-20 01:29N 40°38' W 074°08'0 0.0
2017-Oct-20 00:59N 40°38' W 074°08'0 0.0
2017-Oct-20 00:29N 40°38' W 074°08'0 0.0
2017-Oct-19 23:59N 40°38' W 074°08'0 0.0
2017-Oct-19 23:29N 40°38' W 074°08'0 0.0
2017-Oct-19 22:59N 40°38' W 074°08'0 0.1
2017-Oct-19 22:29N 40°38' W 074°08'2 4.2
2017-Oct-19 22:00N 40°40' W 074°08'2 4.8
2017-Oct-19 21:30N 40°43' W 074°07'0 0.0
2017-Oct-19 21:00N 40°43' W 074°07'0 0.0
2017-Oct-19 20:30N 40°43' W 074°07'0 0.0
2017-Oct-19 20:00N 40°43' W 074°07'0 0.0
2017-Oct-19 19:30N 40°43' W 074°07'0 0.0
2017-Oct-19 19:00N 40°43' W 074°07'0 0.0
2017-Oct-19 18:30N 40°43' W 074°07'0 0.0
2017-Oct-19 18:00N 40°43' W 074°07'0 0.0
2017-Oct-19 17:30N 40°43' W 074°07'0 0.0
2017-Oct-19 17:00N 40°43' W 074°07'0 0.0
2017-Oct-19 16:30N 40°43' W 074°07'0 0.0
2017-Oct-19 16:00N 40°43' W 074°07'0 0.0
2017-Oct-19 15:30N 40°43' W 074°07'0 0.0
2017-Oct-19 15:00N 40°43' W 074°07'0 0.0
2017-Oct-19 14:27N 40°43' W 074°07'0 0.0
2017-Oct-19 13:54N 40°43' W 074°07'0 0.0
2017-Oct-19 13:27N 40°43' W 074°07'0 0.0
2017-Oct-19 13:00N 40°43' W 074°07'4 8.7
2017-Oct-19 12:30N 40°39' W 074°09'1 0.8
2017-Oct-19 11:49N 40°38' W 074°08'0 0.0
2017-Oct-19 11:28N 40°38' W 074°08'0 0.0
2017-Oct-19 10:58N 40°38' W 074°08'0 0.0
2017-Oct-19 10:28N 40°38' W 074°08'0 0.0
2017-Oct-19 09:58N 40°38' W 074°08'0 0.0
2017-Oct-19 09:25N 40°38' W 074°08'0 0.0
2017-Oct-19 08:52N 40°38' W 074°08'0 0.0
2017-Oct-19 08:28N 40°38' W 074°08'0 0.0
2017-Oct-19 07:58N 40°38' W 074°08'0 0.0
2017-Oct-19 07:28N 40°38' W 074°08'0 0.0
2017-Oct-19 06:58N 40°38' W 074°08'0 0.0
2017-Oct-19 06:28N 40°38' W 074°08'0 0.0
2017-Oct-19 05:58N 40°38' W 074°08'0 0.0
2017-Oct-19 05:22N 40°38' W 074°08'0 0.0
2017-Oct-19 04:58N 40°38' W 074°08'0 0.0
2017-Oct-19 04:28N 40°38' W 074°08'0 0.0
2017-Oct-19 03:58N 40°38' W 074°08'0 0.8
2017-Oct-19 03:30N 40°39' W 074°07'1 1.3
2017-Oct-19 02:59N 40°39' W 074°07'0 0.0
2017-Oct-19 02:29N 40°39' W 074°07'0 0.0
2017-Oct-19 01:59N 40°39' W 074°07'0 0.0
2017-Oct-19 01:29N 40°39' W 074°07'0 0.0
2017-Oct-19 00:59N 40°39' W 074°07'0 0.0
2017-Oct-19 00:17N 40°39' W 074°07'1 3.6
2017-Oct-19 00:00N 40°39' W 074°08'3 6.6
2017-Oct-18 23:30N 40°42' W 074°07'1 1.6
2017-Oct-18 22:58N 40°43' W 074°07'0 0.1
2017-Oct-18 22:28N 40°43' W 074°07'0 0.0
2017-Oct-18 22:00N 40°43' W 074°07'0 0.1
2017-Oct-18 21:30N 40°43' W 074°07'0 0.1
2017-Oct-18 21:00N 40°43' W 074°07'2 4.3
2017-Oct-18 20:30N 40°41' W 074°08'2 4.0
2017-Oct-18 20:00N 40°39' W 074°08'3 6.3
2017-Oct-18 19:30N 40°39' W 074°04'3 5.5
2017-Oct-18 19:00N 40°41' W 074°02'2 4.7
2017-Oct-18 18:30N 40°44' W 074°01'2 4.8
2017-Oct-18 18:00N 40°46' W 074°01'1 2.2
2017-Oct-18 17:30N 40°47' W 073°60'0 0.2
2017-Oct-18 17:00N 40°47' W 073°60'0 0.0
2017-Oct-18 16:30N 40°47' W 073°60'0 0.0
2017-Oct-18 16:00N 40°47' W 073°60'0 0.1
2017-Oct-18 15:30N 40°47' W 073°60'0 0.4
2017-Oct-18 15:00N 40°47' W 073°60'2 2.1
2017-Oct-18 14:00N 40°45' W 074°01'3 6.0
2017-Oct-18 13:30N 40°42' W 074°01'3 5.9
2017-Oct-18 13:00N 40°40' W 074°03'2 4.9
2017-Oct-18 12:30N 40°39' W 074°06'1 0.6
2017-Oct-18 10:51N 40°39' W 074°05'2 3.3
2017-Oct-18 10:17N 40°40' W 074°03'1 4.4
2017-Oct-18 10:00N 40°41' W 074°02'2 4.3
2017-Oct-18 09:30N 40°43' W 074°01'0 0.3
2017-Oct-18 09:00N 40°43' W 074°01'1 1.3
2017-Oct-18 08:30N 40°43' W 074°01'2 4.2
2017-Oct-18 08:00N 40°41' W 074°02'3 6.3
2017-Oct-18 07:30N 40°38' W 074°03'49 6.9
2017-Oct-18 00:25N 39°49' W 073°58'3 7.8
2017-Oct-18 00:00N 39°46' W 073°59'4 7.6
2017-Oct-17 23:30N 39°42' W 073°59'4 7.3
2017-Oct-17 22:59N 39°38' W 074°00'3 7.0
2017-Oct-17 22:30N 39°35' W 074°02'4 7.0
2017-Oct-17 21:59N 39°32' W 074°03'177 6.3
2017-Oct-16 18:03N 36°56' W 075°51'0 5.4
2017-Oct-16 18:00N 36°56' W 075°52'3 5.3
2017-Oct-16 17:29N 36°56' W 075°55'3 6.9
2017-Oct-16 17:00N 36°56' W 075°59'4 7.5
2017-Oct-16 16:30N 36°57' W 076°04'13 5.2
2017-Oct-16 13:55N 36°59' W 076°20'3 6.7
2017-Oct-16 13:25N 36°56' W 076°20'3 7.8
2017-Oct-16 13:00N 36°52' W 076°20'3 5.8
2017-Oct-16 12:30N 36°50' W 076°18'2 4.6
2017-Oct-16 12:00N 36°48' W 076°18'1 2.4
2017-Oct-16 11:30N 36°47' W 076°18'0 0.8
2017-Oct-16 11:00N 36°46' W 076°18'0 0.0
2017-Oct-16 10:30N 36°46' W 076°18'0 0.0
2017-Oct-16 10:00N 36°46' W 076°18'0 0.0
2017-Oct-16 09:30N 36°46' W 076°18'0 0.0
2017-Oct-16 09:00N 36°46' W 076°18'0 0.0
2017-Oct-16 08:30N 36°46' W 076°18'0 0.0
2017-Oct-16 08:00N 36°46' W 076°18'0 0.0
2017-Oct-16 07:30N 36°46' W 076°18'0 0.0
2017-Oct-16 07:00N 36°46' W 076°18'0 0.0
2017-Oct-16 06:30N 36°46' W 076°18'0 0.0
2017-Oct-16 06:00N 36°46' W 076°18'0 0.0
2017-Oct-16 05:30N 36°46' W 076°18'0 0.0
2017-Oct-16 05:00N 36°46' W 076°18'0 0.0
2017-Oct-16 04:30N 36°46' W 076°18'0 0.0
2017-Oct-16 04:00N 36°46' W 076°18'0 0.0
2017-Oct-16 03:31N 36°46' W 076°18'0 0.0
2017-Oct-16 03:00N 36°46' W 076°18'0 0.0
2017-Oct-16 02:30N 36°46' W 076°18'0 0.0
2017-Oct-16 02:00N 36°46' W 076°18'0 0.0
2017-Oct-16 01:30N 36°46' W 076°18'0 0.0
2017-Oct-16 01:00N 36°46' W 076°18'0 0.0
2017-Oct-16 00:30N 36°46' W 076°18'0 0.0
2017-Oct-16 00:00N 36°46' W 076°18'0 0.0
2017-Oct-15 23:30N 36°46' W 076°18'0 0.0
2017-Oct-15 23:00N 36°46' W 076°18'0 0.0
2017-Oct-15 22:30N 36°46' W 076°18'0 0.0
2017-Oct-15 22:00N 36°46' W 076°18'0 0.0
2017-Oct-15 21:30N 36°46' W 076°18'0 0.0
2017-Oct-15 21:00N 36°46' W 076°18'0 0.0
2017-Oct-15 20:30N 36°46' W 076°18'0 0.0
2017-Oct-15 20:00N 36°46' W 076°18'0 0.0
2017-Oct-15 19:30N 36°46' W 076°18'0 0.0
2017-Oct-15 15:47N 36°46' W 076°18'0 0.0
2017-Oct-15 15:30N 36°46' W 076°18'0 0.0
2017-Oct-15 15:00N 36°46' W 076°18'0 0.0
2017-Oct-15 14:00N 36°46' W 076°18'0 0.0
2017-Oct-15 13:30N 36°46' W 076°18'0 0.0
2017-Oct-15 06:39N 36°46' W 076°18'0 0.0
2017-Oct-15 06:30N 36°46' W 076°18'0 0.0
2017-Oct-15 06:00N 36°46' W 076°18'0 0.0
2017-Oct-15 05:30N 36°46' W 076°18'0 0.0
2017-Oct-15 05:00N 36°46' W 076°18'0 0.0
2017-Oct-15 04:30N 36°46' W 076°18'0 0.0
2017-Oct-15 04:00N 36°46' W 076°18'0 0.0
2017-Oct-15 03:30N 36°46' W 076°18'0 0.0
2017-Oct-15 03:00N 36°46' W 076°18'0 0.0
2017-Oct-15 02:30N 36°46' W 076°18'0 0.0
2017-Oct-15 02:00N 36°46' W 076°18'0 0.0
2017-Oct-15 01:30N 36°46' W 076°18'0 0.0
2017-Oct-15 01:00N 36°46' W 076°18'0 0.0
2017-Oct-15 00:30N 36°46' W 076°18'0 0.0
2017-Oct-15 00:00N 36°46' W 076°18'3 1.4
2017-Oct-14 21:34N 36°50' W 076°18'0 7.0
2017-Oct-14 21:30N 36°50' W 076°18'3 6.4
2017-Oct-14 21:00N 36°53' W 076°20'3 6.4
2017-Oct-14 20:30N 36°56' W 076°20'3 4.2
2017-Oct-14 19:43N 36°59' W 076°20'10 2.8
2017-Oct-14 15:58N 36°59' W 076°07'3 6.7
2017-Oct-14 15:30N 36°58' W 076°03'3 5.9
2017-Oct-14 14:59N 36°57' W 075°59'3 6.0
2017-Oct-14 14:30N 36°57' W 075°56'3 6.0
2017-Oct-14 14:00N 36°57' W 075°52'176 8.0
2017-Oct-13 16:02N 39°31' W 074°04'1 8.6
2017-Oct-13 15:58N 39°31' W 074°03'4 8.6
2017-Oct-13 15:30N 39°35' W 074°02'4 8.6
2017-Oct-13 15:00N 39°39' W 074°00'4 8.5
2017-Oct-13 14:29N 39°44' W 073°59'57 8.1
2017-Oct-13 07:25N 40°41' W 074°02'3 7.2
2017-Oct-13 07:00N 40°44' W 074°01'4 7.3
2017-Oct-13 06:30N 40°47' W 073°60'3 6.3
2017-Oct-13 06:00N 40°50' W 073°58'0 0.2
2017-Oct-13 05:28N 40°50' W 073°58'0 0.0
2017-Oct-13 04:58N 40°50' W 073°58'0 0.0
2017-Oct-13 04:28N 40°50' W 073°58'0 0.0
2017-Oct-13 03:49N 40°50' W 073°58'0 0.0
2017-Oct-13 03:25N 40°50' W 073°58'0 0.0
2017-Oct-13 02:55N 40°50' W 073°58'0 0.0
2017-Oct-13 02:28N 40°50' W 073°58'0 0.0
2017-Oct-13 01:46N 40°50' W 073°58'0 0.0
2017-Oct-13 01:25N 40°50' W 073°58'0 0.0
2017-Oct-13 00:58N 40°50' W 073°58'0 0.0
2017-Oct-13 00:28N 40°50' W 073°58'0 0.0
2017-Oct-12 23:58N 40°50' W 073°58'0 0.1
2017-Oct-12 23:22N 40°50' W 073°58'0 0.1
2017-Oct-12 22:58N 40°50' W 073°58'0 0.1
2017-Oct-12 22:28N 40°50' W 073°58'0 0.0
2017-Oct-12 21:55N 40°50' W 073°58'0 0.1
2017-Oct-12 21:28N 40°50' W 073°58'0 0.0
2017-Oct-12 20:58N 40°50' W 073°58'0 0.0
2017-Oct-12 20:28N 40°50' W 073°58'0 0.0
2017-Oct-12 19:58N 40°50' W 073°58'0 0.0
2017-Oct-12 19:28N 40°50' W 073°58'0 0.0
2017-Oct-12 18:58N 40°50' W 073°58'0 0.0
2017-Oct-12 18:22N 40°50' W 073°58'0 0.0
2017-Oct-12 17:22N 40°50' W 073°58'0 0.1
2017-Oct-12 16:52N 40°50' W 073°58'0 0.1
2017-Oct-12 16:28N 40°50' W 073°58'0 0.1
2017-Oct-12 15:31N 40°50' W 073°58'0 0.1
2017-Oct-12 15:22N 40°50' W 073°58'0 0.1
2017-Oct-12 15:00N 40°50' W 073°58'0 0.0
2017-Oct-12 14:30N 40°50' W 073°58'0 0.0
2017-Oct-12 14:00N 40°50' W 073°58'0 0.0
2017-Oct-12 13:28N 40°50' W 073°58'0 0.0
2017-Oct-12 12:59N 40°50' W 073°58'0 0.0
2017-Oct-12 12:29N 40°50' W 073°58'0 0.0
2017-Oct-12 12:00N 40°50' W 073°58'0 0.0
2017-Oct-12 11:30N 40°50' W 073°58'0 0.0
2017-Oct-12 11:00N 40°50' W 073°58'0 0.0
2017-Oct-12 10:30N 40°50' W 073°58'0 1.0
2017-Oct-12 10:00N 40°49' W 073°58'0 0.2
2017-Oct-12 09:30N 40°49' W 073°58'3 5.3
2017-Oct-12 09:00N 40°47' W 073°60'4 8.9
2017-Oct-12 08:30N 40°43' W 074°01'4 2.5
2017-Oct-12 06:45N 40°42' W 074°07'1 1.0
2017-Oct-12 06:13N 40°43' W 074°07'0 0.0
2017-Oct-12 05:29N 40°43' W 074°07'0 0.6
2017-Oct-12 05:01N 40°42' W 074°07'4 7.9
2017-Oct-12 04:31N 40°39' W 074°08'0 0.2
2017-Oct-12 04:00N 40°38' W 074°08'0 0.0
2017-Oct-12 03:30N 40°38' W 074°08'0 0.0
2017-Oct-12 03:00N 40°38' W 074°08'0 0.0
2017-Oct-12 02:31N 40°38' W 074°08'0 0.0
2017-Oct-12 02:00N 40°38' W 074°08'0 0.0
2017-Oct-12 01:30N 40°38' W 074°08'0 0.0
2017-Oct-12 01:00N 40°38' W 074°08'0 0.0
2017-Oct-12 00:30N 40°38' W 074°08'0 0.0
2017-Oct-12 00:00N 40°38' W 074°08'0 0.0
2017-Oct-11 23:30N 40°38' W 074°08'0 0.0
2017-Oct-11 22:59N 40°38' W 074°08'0 0.0
2017-Oct-11 22:30N 40°38' W 074°08'0 0.0
2017-Oct-11 22:00N 40°38' W 074°08'0 0.0
2017-Oct-11 21:29N 40°38' W 074°08'0 0.0
2017-Oct-11 20:47N 40°38' W 074°08'0 0.0
2017-Oct-11 20:31N 40°38' W 074°08'0 0.0
2017-Oct-11 20:00N 40°38' W 074°08'0 0.0
2017-Oct-11 19:30N 40°38' W 074°08'4 7.2
2017-Oct-11 19:01N 40°42' W 074°07'1 1.4
2017-Oct-11 18:30N 40°43' W 074°07'2 4.5
2017-Oct-11 18:01N 40°40' W 074°08'1 1.4
2017-Oct-11 17:31N 40°40' W 074°08'0 0.6
2017-Oct-11 17:01N 40°40' W 074°08'2 0.1
2017-Oct-11 00:00N 40°38' W 074°08'0 0.0
2017-Oct-10 23:30N 40°38' W 074°08'1 1.3
2017-Oct-10 23:00N 40°39' W 074°07'0 0.7
2017-Oct-10 22:30N 40°39' W 074°07'0 0.0
2017-Oct-10 22:01N 40°39' W 074°07'0 0.0
2017-Oct-10 21:30N 40°39' W 074°07'0 0.0
2017-Oct-10 21:00N 40°39' W 074°07'0 0.7
2017-Oct-10 20:31N 40°39' W 074°07'3 6.7
2017-Oct-10 20:00N 40°42' W 074°07'1 1.4
2017-Oct-10 19:30N 40°43' W 074°07'2 3.0
2017-Oct-10 19:00N 40°41' W 074°08'3 5.3
2017-Oct-10 18:30N 40°39' W 074°08'3 6.8
2017-Oct-10 18:01N 40°39' W 074°04'1 1.3
2017-Oct-10 17:30N 40°39' W 074°03'0 0.2
2017-Oct-10 17:01N 40°39' W 074°03'3 5.5
2017-Oct-10 16:30N 40°39' W 074°07'2 3.4
2017-Oct-10 16:00N 40°39' W 074°09'3 5.6
2017-Oct-10 15:30N 40°42' W 074°07'1 1.5
2017-Oct-10 15:01N 40°43' W 074°07'0 0.0
2017-Oct-10 14:00N 40°43' W 074°07'2 3.2
2017-Oct-10 13:30N 40°41' W 074°08'3 5.3
2017-Oct-10 13:00N 40°38' W 074°08'  

Dump ship's entire track history